Terminal Aerodrome Forecast
Issued by NWS Pocatello, ID

Home | Current Version | Previous Version | Text Only | Print | Product List | Glossary On
Versions: 1 2 3 4 5 6 7 8 9 10 11 12 13 14 15 16 17 18 19 20 21 22 23 24 25 26 27 28 29 30 31 32 33 34 35
000
FTUS45 KPIH 022008 AAB
TAFIDA
TAF AMD
KIDA 022008Z 0220/0318 19006KT 4SM BR OVC008
     FM022300 23008KT P6SM SCT008 OVC015
     FM030200 22006KT 2SM BR FEW008 OVC025
     FM030600 21006KT 1/2SM FZFG SCT004 OVC008=

USA.gov is the U.S. government's official web portal to all federal, state and local government web resources and services.